Time,TemperatureF,DewpointF,PressureIn,WindDirection,WindDirectionDegrees,WindSpeedMPH,WindSpeedGustMPH,Humidity,HourlyPrecipIn,Conditions,Clouds,dailyrainin,SoftwareType,DateUTC
2013-02-04 00:02:00,28.0,25.0,27.51,NNW,344,0.0,0.0,88,0.00,,,0.00,,2013-02-04 07:02:00,
2013-02-04 00:11:00,28.0,25.0,27.51,NNW,344,0.0,0.0,88,0.00,,,0.00,,2013-02-04 07:11:00,
2013-02-04 00:21:00,28.0,25.0,27.51,NNW,344,0.0,0.0,88,0.00,,,0.00,,2013-02-04 07:21:00,
2013-02-04 00:32:00,27.0,24.0,27.50,NNW,344,0.0,0.0,88,0.00,,,0.00,,2013-02-04 07:32:00,
2013-02-04 00:42:00,27.0,24.0,27.50,NNW,344,0.0,0.0,88,0.00,,,0.00,,2013-02-04 07:42:00,
2013-02-04 00:52:00,27.0,24.0,27.50,NNW,344,1.0,5.0,89,0.00,,,0.00,,2013-02-04 07:52:00,
2013-02-04 01:01:00,27.0,24.0,27.50,NNW,344,0.0,2.0,89,0.00,,,0.00,,2013-02-04 08:01:00,
2013-02-04 01:11:00,27.0,24.0,27.50,NNW,344,0.0,2.0,89,0.00,,,0.00,,2013-02-04 08:11:00,
2013-02-04 01:21:00,27.0,24.0,27.50,NNW,344,0.0,0.0,90,0.00,,,0.00,,2013-02-04 08:21:00,
2013-02-04 01:31:00,27.0,24.0,27.48,NNW,344,0.0,2.0,90,0.00,,,0.00,,2013-02-04 08:31:00,
2013-02-04 01:42:00,27.0,24.0,27.48,NNW,344,0.0,2.0,90,0.00,,,0.00,,2013-02-04 08:42:00,
2013-02-04 01:52:00,27.0,25.0,27.48,NNW,344,0.0,0.0,91,0.00,,,0.00,,2013-02-04 08:52:00,
2013-02-04 02:02:00,27.0,25.0,27.48,NNW,344,0.0,2.0,91,0.00,,,0.00,,2013-02-04 09:02:00,
2013-02-04 02:11:00,27.0,25.0,27.48,NNW,344,0.0,2.0,91,0.00,,,0.00,,2013-02-04 09:11:00,
2013-02-04 02:21:00,26.0,24.0,27.48,NNW,344,0.0,0.0,91,0.00,,,0.00,,2013-02-04 09:21:00,
2013-02-04 02:31:00,26.0,24.0,27.48,NNW,344,0.0,1.0,91,0.00,,,0.00,,2013-02-04 09:31:00,
2013-02-04 02:41:00,26.0,24.0,27.48,NNW,344,0.0,1.0,91,0.00,,,0.00,,2013-02-04 09:41:00,
2013-02-04 02:52:00,26.0,24.0,27.47,NNW,344,0.0,0.0,91,0.00,,,0.00,,2013-02-04 09:52:00,
2013-02-04 03:01:00,26.0,24.0,27.47,NNW,344,0.0,2.0,91,0.00,,,0.00,,2013-02-04 10:01:00,
2013-02-04 03:11:00,26.0,24.0,27.47,NNW,344,0.0,2.0,91,0.00,,,0.00,,2013-02-04 10:11:00,
2013-02-04 03:21:00,26.0,24.0,27.47,NNW,344,0.0,0.0,91,0.00,,,0.00,,2013-02-04 10:21:00,
2013-02-04 03:32:00,26.0,24.0,27.45,NNW,344,0.0,0.0,91,0.00,,,0.00,,2013-02-04 10:32:00,
2013-02-04 03:41:00,26.0,24.0,27.45,NNW,344,0.0,0.0,91,0.00,,,0.00,,2013-02-04 10:41:00,
2013-02-04 03:52:00,25.0,23.0,27.45,NNW,344,1.0,4.0,91,0.00,,,0.00,,2013-02-04 10:52:00,
2013-02-04 04:02:00,25.0,23.0,27.45,NNW,344,2.0,5.0,92,0.00,,,0.00,,2013-02-04 11:02:00,
2013-02-04 04:11:00,25.0,23.0,27.45,NNW,344,2.0,5.0,92,0.00,,,0.00,,2013-02-04 11:11:00,
2013-02-04 04:22:00,25.0,23.0,27.45,NNW,344,0.0,2.0,92,0.00,,,0.00,,2013-02-04 11:22:00,
2013-02-04 04:32:00,25.0,23.0,27.44,NNW,344,2.0,4.0,92,0.00,,,0.00,,2013-02-04 11:32:00,
2013-02-04 04:42:00,25.0,23.0,27.44,NNW,344,2.0,4.0,92,0.00,,,0.00,,2013-02-04 11:42:00,
2013-02-04 04:52:00,25.0,23.0,27.43,NNW,344,0.0,4.0,92,0.00,,,0.00,,2013-02-04 11:52:00,
2013-02-04 05:02:00,25.0,23.0,27.43,NNW,344,2.0,5.0,92,0.00,,,0.00,,2013-02-04 12:02:00,
2013-02-04 05:12:00,25.0,23.0,27.43,NNW,344,2.0,5.0,92,0.00,,,0.00,,2013-02-04 12:12:00,
2013-02-04 05:22:00,25.0,23.0,27.43,NNW,344,1.0,3.0,93,0.00,,,0.00,,2013-02-04 12:22:00,
2013-02-04 05:32:00,26.0,24.0,27.42,NNW,344,0.0,0.0,93,0.00,,,0.00,,2013-02-04 12:32:00,
2013-02-04 05:42:00,26.0,24.0,27.42,NNW,344,0.0,0.0,93,0.00,,,0.00,,2013-02-04 12:42:00,
2013-02-04 05:53:00,26.0,24.0,27.42,NNW,344,0.0,0.0,93,0.00,,,0.00,,2013-02-04 12:53:00,
2013-02-04 06:02:00,26.0,24.0,27.41,NNW,344,0.0,0.0,93,0.00,,,0.00,,2013-02-04 13:02:00,
2013-02-04 06:12:00,26.0,24.0,27.41,NNW,344,0.0,0.0,93,0.00,,,0.00,,2013-02-04 13:12:00,
2013-02-04 06:21:00,26.0,24.0,27.41,NNW,344,0.0,0.0,93,0.00,,,0.00,,2013-02-04 13:21:00,
2013-02-04 06:33:00,26.0,24.0,27.41,NNW,344,0.0,0.0,93,0.00,,,0.00,,2013-02-04 13:33:00,
2013-02-04 06:42:00,26.0,24.0,27.41,NNW,344,0.0,0.0,93,0.00,,,0.00,,2013-02-04 13:42:00,
2013-02-04 06:52:00,26.0,24.0,27.41,NNW,344,0.0,2.0,93,0.00,,,0.00,,2013-02-04 13:52:00,
2013-02-04 07:03:00,27.0,25.0,27.41,SSW,202,3.0,6.0,93,0.00,,,0.00,,2013-02-04 14:03:00,
2013-02-04 07:11:00,27.0,25.0,27.41,SSW,202,3.0,6.0,93,0.00,,,0.00,,2013-02-04 14:11:00,
2013-02-04 07:22:00,27.0,25.0,27.42,SSW,202,1.0,5.0,93,0.00,,,0.00,,2013-02-04 14:22:00,
2013-02-04 07:32:00,27.0,25.0,27.40,SSE,161,3.0,6.0,93,0.00,,,0.00,,2013-02-04 14:32:00,
2013-02-04 07:42:00,27.0,25.0,27.40,SSE,161,3.0,6.0,93,0.00,,,0.00,,2013-02-04 14:42:00,
2013-02-04 07:52:00,29.0,27.0,27.38,SSE,155,9.0,12.0,93,0.00,,,0.00,,2013-02-04 14:52:00,
2013-02-04 08:03:00,30.0,27.0,27.38,SSE,165,8.0,11.0,90,0.00,,,0.00,,2013-02-04 15:03:00,
2013-02-04 08:12:00,30.0,27.0,27.38,SSE,165,8.0,11.0,90,0.00,,,0.00,,2013-02-04 15:12:00,
2013-02-04 08:23:00,31.0,27.0,27.38,SSE,162,7.0,10.0,86,0.00,,,0.00,,2013-02-04 15:23:00,
2013-02-04 08:33:00,32.0,28.0,27.39,South,175,2.0,6.0,85,0.00,,,0.00,,2013-02-04 15:33:00,
2013-02-04 08:43:00,32.0,28.0,27.39,South,175,2.0,6.0,85,0.00,,,0.00,,2013-02-04 15:43:00,
2013-02-04 08:53:00,31.0,27.0,27.38,South,182,9.0,12.0,85,0.00,,,0.00,,2013-02-04 15:53:00,
2013-02-04 09:02:00,32.0,28.0,27.38,South,183,8.0,12.0,84,0.00,,,0.00,,2013-02-04 16:02:00,
2013-02-04 09:11:00,32.0,28.0,27.38,South,183,8.0,12.0,84,0.00,,,0.00,,2013-02-04 16:11:00,
2013-02-04 09:22:00,32.0,28.0,27.38,South,187,9.0,12.0,85,0.00,,,0.00,,2013-02-04 16:22:00,
2013-02-04 09:33:00,33.0,28.0,27.36,SSE,160,14.0,21.0,83,0.00,,,0.00,,2013-02-04 16:33:00,
2013-02-04 09:42:00,33.0,28.0,27.36,SSE,160,14.0,21.0,83,0.00,,,0.00,,2013-02-04 16:42:00,
2013-02-04 09:52:00,33.0,28.0,27.36,SSE,160,14.0,21.0,83,0.00,,,0.00,,2013-02-04 16:52:00,
2013-02-04 10:02:00,34.0,29.0,27.37,SSW,194,10.0,15.0,82,0.00,,,0.00,,2013-02-04 17:02:00,
2013-02-04 10:11:00,34.0,29.0,27.37,SSW,194,10.0,15.0,82,0.00,,,0.00,,2013-02-04 17:11:00,
2013-02-04 10:21:00,34.0,29.0,27.37,South,185,13.0,18.0,82,0.00,,,0.00,,2013-02-04 17:21:00,
2013-02-04 10:32:00,34.0,29.0,27.37,South,190,15.0,20.0,82,0.00,,,0.00,,2013-02-04 17:32:00,
2013-02-04 10:42:00,34.0,29.0,27.37,South,190,15.0,20.0,82,0.00,,,0.00,,2013-02-04 17:42:00,
2013-02-04 10:52:00,35.0,30.0,27.37,South,181,14.0,19.0,81,0.00,,,0.00,,2013-02-04 17:52:00,
2013-02-04 11:03:00,36.0,30.0,27.37,SSE,166,13.0,19.0,79,0.00,,,0.00,,2013-02-04 18:03:00,
2013-02-04 11:11:00,36.0,30.0,27.37,SSE,166,13.0,19.0,79,0.00,,,0.00,,2013-02-04 18:11:00,
2013-02-04 11:22:00,36.0,30.0,27.37,South,191,9.0,14.0,79,0.00,,,0.00,,2013-02-04 18:22:00,
2013-02-04 11:32:00,36.0,30.0,27.36,SSW,195,12.0,16.0,78,0.00,,,0.00,,2013-02-04 18:32:00,
2013-02-04 11:42:00,36.0,30.0,27.36,SSW,195,12.0,16.0,78,0.00,,,0.00,,2013-02-04 18:42:00,
2013-02-04 11:52:00,37.0,31.0,27.35,South,182,11.0,16.0,78,0.00,,,0.00,,2013-02-04 18:52:00,
2013-02-04 12:02:00,37.0,31.0,27.35,South,183,12.0,18.0,79,0.00,,,0.00,,2013-02-04 19:02:00,
2013-02-04 12:11:00,37.0,31.0,27.35,South,183,12.0,18.0,79,0.00,,,0.00,,2013-02-04 19:11:00,
2013-02-04 12:22:00,38.0,32.0,27.34,SSW,213,10.0,18.0,78,0.00,,,0.00,,2013-02-04 19:22:00,
2013-02-04 12:31:00,39.0,31.0,27.34,SSW,205,11.0,14.0,72,0.00,,,0.00,,2013-02-04 19:31:00,
2013-02-04 12:42:00,39.0,31.0,27.34,SSW,205,11.0,14.0,72,0.00,,,0.00,,2013-02-04 19:42:00,
2013-02-04 12:52:00,41.0,31.0,27.34,SW,220,10.0,15.0,68,0.00,,,0.00,,2013-02-04 19:52:00,
2013-02-04 13:02:00,41.0,31.0,27.34,SSW,204,11.0,16.0,68,0.00,,,0.00,,2013-02-04 20:02:00,
2013-02-04 13:12:00,41.0,31.0,27.34,SSW,204,11.0,16.0,68,0.00,,,0.00,,2013-02-04 20:12:00,
2013-02-04 13:22:00,41.0,32.0,27.34,SSW,198,10.0,14.0,70,0.00,,,0.00,,2013-02-04 20:22:00,
2013-02-04 13:32:00,40.0,33.0,27.34,South,187,10.0,13.0,75,0.00,,,0.00,,2013-02-04 20:32:00,
2013-02-04 13:42:00,40.0,33.0,27.34,South,187,10.0,13.0,75,0.00,,,0.00,,2013-02-04 20:42:00,
2013-02-04 13:52:00,40.0,33.0,27.34,South,187,12.0,15.0,75,0.00,,,0.00,,2013-02-04 20:52:00,
2013-02-04 14:02:00,40.0,32.0,27.34,South,187,11.0,14.0,73,0.00,,,0.00,,2013-02-04 21:02:00,
2013-02-04 14:11:00,40.0,32.0,27.34,South,187,11.0,14.0,73,0.00,,,0.00,,2013-02-04 21:11:00,
2013-02-04 14:22:00,42.0,32.0,27.34,SW,214,9.0,13.0,68,0.00,,,0.00,,2013-02-04 21:22:00,
2013-02-04 14:32:00,44.0,33.0,27.33,West,274,7.0,18.0,65,0.00,,,0.00,,2013-02-04 21:32:00,
2013-02-04 14:42:00,44.0,33.0,27.33,West,274,7.0,18.0,65,0.00,,,0.00,,2013-02-04 21:42:00,
2013-02-04 14:52:00,44.0,32.0,27.33,SW,228,8.0,15.0,62,0.00,,,0.00,,2013-02-04 21:52:00,
2013-02-04 15:02:00,45.0,32.0,27.32,WSW,238,11.0,19.0,61,0.00,,,0.00,,2013-02-04 22:02:00,
2013-02-04 15:12:00,45.0,32.0,27.32,WSW,238,11.0,19.0,61,0.00,,,0.00,,2013-02-04 22:12:00,
2013-02-04 15:21:00,45.0,32.0,27.32,SW,226,10.0,21.0,59,0.00,,,0.00,,2013-02-04 22:21:00,
2013-02-04 15:32:00,45.0,33.0,27.32,SW,227,8.0,16.0,62,0.00,,,0.00,,2013-02-04 22:32:00,
2013-02-04 15:42:00,45.0,33.0,27.32,SW,227,8.0,16.0,62,0.00,,,0.00,,2013-02-04 22:42:00,
2013-02-04 15:52:00,45.0,33.0,27.32,WSW,250,7.0,22.0,62,0.00,,,0.00,,2013-02-04 22:52:00,
2013-02-04 16:01:00,45.0,33.0,27.32,WSW,242,8.0,18.0,62,0.00,,,0.00,,2013-02-04 23:01:00,
2013-02-04 16:11:00,45.0,33.0,27.32,WSW,242,8.0,18.0,62,0.00,,,0.00,,2013-02-04 23:11:00,
2013-02-04 16:21:00,44.0,32.0,27.32,WSW,242,8.0,13.0,62,0.00,,,0.00,,2013-02-04 23:21:00,
2013-02-04 16:32:00,44.0,32.0,27.32,SW,220,8.0,13.0,63,0.00,,,0.00,,2013-02-04 23:32:00,
2013-02-04 16:42:00,44.0,32.0,27.32,SW,220,8.0,13.0,63,0.00,,,0.00,,2013-02-04 23:42:00,
2013-02-04 16:52:00,43.0,32.0,27.33,SW,234,6.0,11.0,65,0.00,,,0.00,,2013-02-04 23:52:00,
2013-02-04 17:01:00,42.0,31.0,27.32,SW,227,5.0,11.0,66,0.00,,,0.00,,2013-02-05 00:01:00,
2013-02-04 17:11:00,42.0,31.0,27.32,SW,227,5.0,11.0,66,0.00,,,0.00,,2013-02-05 00:11:00,
2013-02-04 17:22:00,41.0,32.0,27.32,South,190,8.0,11.0,69,0.00,,,0.00,,2013-02-05 00:22:00,
2013-02-04 17:31:00,40.0,31.0,27.32,South,190,9.0,11.0,70,0.00,,,0.00,,2013-02-05 00:31:00,
2013-02-04 17:42:00,40.0,31.0,27.32,South,190,9.0,11.0,70,0.00,,,0.00,,2013-02-05 00:42:00,
2013-02-04 17:52:00,40.0,31.0,27.32,SSW,201,8.0,10.0,71,0.00,,,0.00,,2013-02-05 00:52:00,
2013-02-04 18:01:00,40.0,31.0,27.32,SSW,201,8.0,10.0,71,0.00,,,0.00,,2013-02-05 01:01:00,
2013-02-04 18:11:00,40.0,31.0,27.32,SSW,201,8.0,10.0,71,0.00,,,0.00,,2013-02-05 01:11:00,
2013-02-04 18:22:00,39.0,32.0,27.33,SSW,193,8.0,11.0,75,0.00,,,0.00,,2013-02-05 01:22:00,
2013-02-04 18:32:00,38.0,31.0,27.33,SSW,200,7.0,10.0,77,0.00,,,0.00,,2013-02-05 01:32:00,
2013-02-04 18:42:00,38.0,31.0,27.33,SSW,200,7.0,10.0,77,0.00,,,0.00,,2013-02-05 01:42:00,
2013-02-04 18:52:00,37.0,31.0,27.34,SSW,200,3.0,5.0,78,0.00,,,0.00,,2013-02-05 01:52:00,
2013-02-04 19:01:00,36.0,30.0,27.34,South,186,4.0,6.0,80,0.00,,,0.00,,2013-02-05 02:01:00,
2013-02-04 19:11:00,36.0,30.0,27.34,South,186,4.0,6.0,80,0.00,,,0.00,,2013-02-05 02:11:00,
2013-02-04 19:22:00,37.0,31.0,27.34,South,188,7.0,8.0,80,0.00,,,0.00,,2013-02-05 02:22:00,
2013-02-04 19:32:00,37.0,31.0,27.34,South,189,8.0,10.0,79,0.00,,,0.00,,2013-02-05 02:32:00,
2013-02-04 19:41:00,37.0,31.0,27.34,South,189,8.0,10.0,79,0.00,,,0.00,,2013-02-05 02:41:00,
2013-02-04 19:52:00,38.0,31.0,27.35,SSW,202,8.0,11.0,77,0.00,,,0.00,,2013-02-05 02:52:00,
2013-02-04 20:02:00,38.0,32.0,27.35,SW,220,4.0,7.0,78,0.00,,,0.00,,2013-02-05 03:02:00,
2013-02-04 20:11:00,38.0,32.0,27.35,SW,220,4.0,7.0,78,0.00,,,0.00,,2013-02-05 03:11:00,
2013-02-04 20:21:00,38.0,31.0,27.37,West,269,8.0,16.0,77,0.00,,,0.00,,2013-02-05 03:21:00,
2013-02-04 20:32:00,41.0,31.0,27.37,West,281,14.0,20.0,68,0.00,,,0.00,,2013-02-05 03:32:00,
2013-02-04 20:42:00,41.0,31.0,27.37,West,281,14.0,20.0,68,0.00,,,0.00,,2013-02-05 03:42:00,
2013-02-04 20:52:00,42.0,31.0,27.38,West,264,11.0,19.0,65,0.00,,,0.00,,2013-02-05 03:52:00,
2013-02-04 21:01:00,41.0,31.0,27.38,West,270,9.0,16.0,67,0.00,,,0.00,,2013-02-05 04:01:00,
2013-02-04 21:11:00,41.0,31.0,27.38,West,270,9.0,16.0,67,0.00,,,0.00,,2013-02-05 04:11:00,
2013-02-04 21:21:00,41.0,30.0,27.38,WNW,295,13.0,23.0,65,0.00,,,0.00,,2013-02-05 04:21:00,
2013-02-04 21:32:00,40.0,30.0,27.39,West,264,13.0,20.0,67,0.00,,,0.00,,2013-02-05 04:32:00,
2013-02-04 21:42:00,40.0,30.0,27.39,West,264,13.0,20.0,67,0.00,,,0.00,,2013-02-05 04:42:00,
2013-02-04 21:52:00,40.0,31.0,27.40,WNW,294,12.0,18.0,69,0.00,,,0.00,,2013-02-05 04:52:00,
2013-02-04 22:02:00,39.0,30.0,27.41,WNW,286,10.0,20.0,71,0.00,,,0.00,,2013-02-05 05:02:00,
2013-02-04 22:11:00,39.0,30.0,27.41,WNW,286,10.0,20.0,71,0.00,,,0.00,,2013-02-05 05:11:00,
2013-02-04 22:21:00,38.0,30.0,27.42,WNW,298,11.0,18.0,72,0.00,,,0.00,,2013-02-05 05:21:00,
2013-02-04 22:32:00,37.0,29.0,27.43,WNW,288,9.0,13.0,74,0.00,,,0.00,,2013-02-05 05:32:00,
2013-02-04 22:42:00,37.0,29.0,27.43,WNW,288,9.0,13.0,74,0.00,,,0.00,,2013-02-05 05:42:00,
2013-02-04 22:52:00,36.0,29.0,27.43,WNW,285,6.0,10.0,74,0.00,,,0.00,,2013-02-05 05:52:00,
2013-02-04 23:01:00,36.0,29.0,27.44,WSW,240,1.0,7.0,75,0.00,,,0.00,,2013-02-05 06:01:00,
2013-02-04 23:11:00,36.0,29.0,27.44,WSW,240,1.0,7.0,75,0.00,,,0.00,,2013-02-05 06:11:00,
2013-02-04 23:21:00,35.0,29.0,27.44,South,181,5.0,7.0,77,0.00,,,0.00,,2013-02-05 06:21:00,
2013-02-04 23:32:00,35.0,29.0,27.45,SSW,202,5.0,8.0,77,0.00,,,0.00,,2013-02-05 06:32:00,
2013-02-04 23:42:00,35.0,29.0,27.45,SSW,202,5.0,8.0,77,0.00,,,0.00,,2013-02-05 06:42:00,
2013-02-04 23:52:00,35.0,29.0,27.46,SSW,196,3.0,7.0,78,0.00,,,0.00,,2013-02-05 06:52:00,